createdAt,value
2022-09-04T00:01:57.341Z,16.60
2022-09-04T00:04:54.405Z,16.60
2022-09-04T00:08:01.037Z,16.50
2022-09-04T00:10:55.158Z,16.50
2022-09-04T00:13:47.106Z,16.50
2022-09-04T00:16:43.100Z,16.50
2022-09-04T00:19:36.847Z,16.40
2022-09-04T00:22:34.457Z,16.40
2022-09-04T00:25:31.036Z,16.40
2022-09-04T00:28:29.919Z,16.40
2022-09-04T00:31:26.801Z,16.40
2022-09-04T00:34:39.615Z,16.30
2022-09-04T00:37:33.687Z,16.30
2022-09-04T00:40:31.215Z,16.30
2022-09-04T00:43:49.352Z,16.30
2022-09-04T00:47:03.575Z,16.30
2022-09-04T00:50:29.547Z,16.20
2022-09-04T00:53:47.035Z,16.20
2022-09-04T00:57:05.271Z,16.20
2022-09-04T01:00:12.612Z,16.20
2022-09-04T01:03:23.581Z,16.10
2022-09-04T01:06:25.497Z,16.10
2022-09-04T01:09:52.831Z,16.10
2022-09-04T01:12:46.614Z,16.10
2022-09-04T01:15:41.218Z,16.10
2022-09-04T01:18:39.051Z,16.10
2022-09-04T01:22:00.573Z,16.00
2022-09-04T01:25:02.890Z,16.00
2022-09-04T01:27:59.708Z,16.00
2022-09-04T01:30:55.490Z,16.00
2022-09-04T01:33:54.546Z,16.00
2022-09-04T01:36:50.358Z,16.00
2022-09-04T01:39:43.084Z,16.00
2022-09-04T01:42:40.313Z,16.00
2022-09-04T01:45:44.339Z,15.90
2022-09-04T01:48:40.702Z,15.90
2022-09-04T01:51:39.648Z,15.90
2022-09-04T01:54:43.933Z,15.90
2022-09-04T01:57:46.035Z,15.90
2022-09-04T02:00:42.912Z,15.90
2022-09-04T02:03:40.470Z,15.90
2022-09-04T02:06:35.871Z,15.80
2022-09-04T02:09:34.529Z,15.80
2022-09-04T02:12:35.995Z,15.80
2022-09-04T02:15:33.770Z,15.80
2022-09-04T02:18:36.066Z,15.80
2022-09-04T02:21:32.569Z,15.80
2022-09-04T02:24:27.140Z,15.80
2022-09-04T02:27:22.871Z,15.80
2022-09-04T02:30:13.644Z,15.80
2022-09-04T02:33:08.181Z,15.80
2022-09-04T02:36:06.542Z,15.80
2022-09-04T02:39:03.825Z,15.70
2022-09-04T02:42:00.637Z,15.70
2022-09-04T02:44:59.150Z,15.70
2022-09-04T02:47:53.477Z,15.70
2022-09-04T02:50:57.784Z,15.70
2022-09-04T02:54:00.447Z,15.70
2022-09-04T02:56:58.584Z,15.70
2022-09-04T03:00:00.019Z,15.60
2022-09-04T03:02:53.767Z,15.60
2022-09-04T03:05:51.133Z,15.60
2022-09-04T03:08:46.114Z,15.60
2022-09-04T03:11:40.535Z,15.50
2022-09-04T03:14:36.019Z,15.50
2022-09-04T03:17:30.737Z,15.50
2022-09-04T03:20:23.666Z,15.50
2022-09-04T03:23:20.570Z,15.50
2022-09-04T03:26:22.769Z,15.50
2022-09-04T03:29:21.930Z,15.40
2022-09-04T03:32:18.788Z,15.40
2022-09-04T03:35:15.692Z,15.40
2022-09-04T03:38:18.898Z,15.30
2022-09-04T03:41:13.436Z,15.30
2022-09-04T03:44:20.724Z,15.30
2022-09-04T03:47:20.624Z,15.20
2022-09-04T03:50:19.365Z,15.20
2022-09-04T03:53:24.348Z,15.20
2022-09-04T03:56:45.585Z,15.20
2022-09-04T03:59:48.089Z,15.10
2022-09-04T04:02:52.099Z,15.10
2022-09-04T04:05:45.734Z,15.10
2022-09-04T04:08:56.570Z,15.00
2022-09-04T04:12:13.031Z,15.00
2022-09-04T04:15:14.847Z,15.00
2022-09-04T04:18:21.196Z,15.00
2022-09-04T04:21:19.693Z,14.90
2022-09-04T04:24:28.879Z,14.90
2022-09-04T04:27:29.686Z,14.90
2022-09-04T04:30:20.249Z,14.80
2022-09-04T04:33:35.840Z,14.80
2022-09-04T04:36:36.343Z,14.80
2022-09-04T04:39:33.086Z,14.70
2022-09-04T04:42:25.508Z,14.70
2022-09-04T04:45:54.774Z,14.60
2022-09-04T04:49:12.060Z,14.60
2022-09-04T04:52:21.515Z,14.70
2022-09-04T04:55:21.286Z,14.60
2022-09-04T04:58:44.390Z,14.60
2022-09-04T05:01:49.206Z,14.60
2022-09-04T05:04:47.003Z,14.50
2022-09-04T05:07:41.493Z,14.50
2022-09-04T05:10:36.989Z,14.60
2022-09-04T05:13:32.393Z,14.60
2022-09-04T05:16:29.952Z,14.60
2022-09-04T05:19:30.507Z,14.60
2022-09-04T05:22:24.256Z,14.60
2022-09-04T05:25:19.379Z,14.60
2022-09-04T05:28:20.803Z,14.60
2022-09-04T05:31:18.380Z,14.70
2022-09-04T05:34:14.032Z,14.70
2022-09-04T05:37:15.951Z,14.70
2022-09-04T05:40:10.554Z,14.80
2022-09-04T05:43:10.722Z,14.80
2022-09-04T05:46:06.282Z,14.80
2022-09-04T05:49:03.161Z,14.90
2022-09-04T05:52:11.489Z,14.90
2022-09-04T05:55:31.714Z,14.90
2022-09-04T05:58:34.922Z,15.00
2022-09-04T06:01:52.273Z,15.00
2022-09-04T06:05:13.995Z,15.10
2022-09-04T06:08:14.757Z,15.10
2022-09-04T06:11:25.324Z,15.20
2022-09-04T06:14:35.378Z,15.20
2022-09-04T06:17:36.822Z,15.20
2022-09-04T06:20:40.743Z,15.30
2022-09-04T06:23:50.596Z,15.30
2022-09-04T06:26:56.223Z,15.30
2022-09-04T06:30:00.210Z,15.30
2022-09-04T06:33:16.725Z,15.40
2022-09-04T06:36:35.598Z,15.40
2022-09-04T06:40:08.171Z,15.50
2022-09-04T06:43:12.443Z,15.60
2022-09-04T06:46:10.459Z,15.60
2022-09-04T06:49:05.401Z,15.70
2022-09-04T06:52:10.077Z,15.70
2022-09-04T06:55:03.609Z,15.80
2022-09-04T06:58:14.740Z,15.90
2022-09-04T07:01:09.075Z,15.90
2022-09-04T07:04:07.292Z,15.90
2022-09-04T07:07:04.081Z,16.00
2022-09-04T07:10:01.325Z,16.10
2022-09-04T07:13:38.546Z,16.10
2022-09-04T07:16:50.650Z,16.20
2022-09-04T07:20:01.732Z,16.30
2022-09-04T07:23:17.167Z,16.40
2022-09-04T07:26:18.561Z,16.50
2022-09-04T07:29:29.541Z,16.50
2022-09-04T07:32:23.807Z,16.60
2022-09-04T07:35:21.110Z,16.70
2022-09-04T07:38:19.171Z,16.70
2022-09-04T07:41:13.240Z,16.80
2022-09-04T07:44:10.632Z,16.90
2022-09-04T07:47:13.370Z,16.90
2022-09-04T07:50:10.401Z,17.00
2022-09-04T07:53:18.359Z,17.00
2022-09-04T07:56:17.914Z,17.10
2022-09-04T07:59:28.472Z,17.20
2022-09-04T08:02:32.854Z,17.30
2022-09-04T08:05:24.992Z,17.40
2022-09-04T08:08:54.970Z,17.40
2022-09-04T08:12:25.648Z,17.50
2022-09-04T08:15:21.772Z,17.60
2022-09-04T08:18:29.584Z,17.70
2022-09-04T08:21:26.969Z,17.80
2022-09-04T08:24:32.185Z,17.80
2022-09-04T08:27:34.117Z,17.90
2022-09-04T08:30:24.276Z,18.00
2022-09-04T08:33:37.449Z,18.10
2022-09-04T08:36:34.057Z,18.20
2022-09-04T08:39:35.517Z,18.30
2022-09-04T08:42:54.076Z,18.30
2022-09-04T08:46:28.311Z,18.40
2022-09-04T08:50:02.353Z,18.50
2022-09-04T08:53:41.616Z,18.60
2022-09-04T08:56:38.617Z,18.70
2022-09-04T08:59:55.820Z,18.90
2022-09-04T09:03:17.488Z,18.90
2022-09-04T09:06:35.974Z,19.00
2022-09-04T09:10:03.522Z,19.10
2022-09-04T09:13:25.918Z,19.20
2022-09-04T09:16:38.218Z,19.30
2022-09-04T09:19:44.646Z,19.40
2022-09-04T09:23:09.837Z,19.50
2022-09-04T09:26:19.699Z,19.60
2022-09-04T09:29:41.786Z,19.70
2022-09-04T09:33:05.636Z,19.80
2022-09-04T09:36:26.779Z,20.00
2022-09-04T09:39:47.446Z,20.00
2022-09-04T09:43:10.017Z,20.20
2022-09-04T09:46:28.723Z,20.30
2022-09-04T09:49:44.113Z,20.40
2022-09-04T09:53:09.312Z,20.50
2022-09-04T09:56:42.217Z,20.60
2022-09-04T10:00:11.981Z,20.70
2022-09-04T10:03:34.636Z,20.80
2022-09-04T10:07:02.010Z,20.90
2022-09-04T10:10:15.751Z,21.00
2022-09-04T10:13:26.043Z,21.10
2022-09-04T10:16:48.311Z,21.20
2022-09-04T10:20:08.522Z,21.20
2022-09-04T10:23:25.430Z,21.30
2022-09-04T10:26:39.253Z,21.40
2022-09-04T10:29:51.743Z,21.50
2022-09-04T10:33:14.295Z,21.60
2022-09-04T10:36:19.583Z,21.70
2022-09-04T10:39:40.354Z,21.80
2022-09-04T10:42:41.976Z,21.90
2022-09-04T10:45:35.885Z,22.10
2022-09-04T10:48:54.143Z,22.10
2022-09-04T10:52:06.735Z,22.20
2022-09-04T10:55:32.704Z,22.30
2022-09-04T10:58:53.542Z,22.40
2022-09-04T11:02:24.942Z,22.50
2022-09-04T11:05:41.375Z,22.70
2022-09-04T11:08:58.586Z,22.80
2022-09-04T11:12:09.326Z,22.80
2022-09-04T11:15:19.583Z,23.00
2022-09-04T11:18:41.191Z,23.10
2022-09-04T11:22:08.642Z,23.20
2022-09-04T11:25:48.078Z,23.30
2022-09-04T11:28:51.230Z,23.50
2022-09-04T11:32:04.016Z,23.60
2022-09-04T11:35:14.096Z,23.80
2022-09-04T11:38:20.508Z,23.90
2022-09-04T11:41:39.458Z,24.00
2022-09-04T11:44:52.238Z,24.20
2022-09-04T11:48:21.388Z,24.30
2022-09-04T11:51:22.822Z,24.40
2022-09-04T11:54:36.892Z,24.50
2022-09-04T11:57:37.104Z,24.60
2022-09-04T12:00:25.486Z,24.70
2022-09-04T12:03:49.422Z,24.80
2022-09-04T12:06:55.422Z,24.90
2022-09-04T12:10:17.666Z,24.90
2022-09-04T12:13:31.251Z,25.00
2022-09-04T12:16:48.202Z,25.20
2022-09-04T12:20:08.278Z,25.30
2022-09-04T12:23:13.778Z,25.50
2022-09-04T12:30:09.544Z,25.70
2022-09-04T12:33:27.746Z,25.90
2022-09-04T12:36:59.386Z,25.90
2022-09-04T12:40:17.783Z,25.90
2022-09-04T12:43:22.866Z,26.10
2022-09-04T12:46:24.442Z,26.30
2022-09-04T12:49:41.809Z,26.40
2022-09-04T12:52:41.890Z,26.50
2022-09-04T12:55:37.496Z,26.70
2022-09-04T12:58:34.696Z,27.00
2022-09-04T13:01:36.467Z,27.10
2022-09-04T13:04:39.724Z,27.20
2022-09-04T13:07:42.753Z,27.50
2022-09-04T13:10:42.250Z,27.70
2022-09-04T13:13:43.259Z,27.90
2022-09-04T13:16:39.477Z,27.90
2022-09-04T13:19:36.842Z,28.00
2022-09-04T13:22:31.456Z,28.20
2022-09-04T13:25:37.270Z,28.30
2022-09-04T13:28:35.166Z,28.50
2022-09-04T13:31:43.323Z,28.60
2022-09-04T13:34:44.657Z,29.10
2022-09-04T13:37:45.943Z,29.30
2022-09-04T13:41:23.722Z,29.90
2022-09-04T13:44:40.911Z,30.40
2022-09-04T13:47:36.501Z,30.90
2022-09-04T13:50:32.150Z,31.40
2022-09-04T13:53:24.807Z,31.60
2022-09-04T13:56:19.595Z,31.50
2022-09-04T13:59:11.933Z,31.40
2022-09-04T14:02:04.785Z,31.30
2022-09-04T14:04:57.319Z,30.90
2022-09-04T14:07:50.075Z,30.70
2022-09-04T14:10:58.451Z,30.10
2022-09-04T14:14:11.383Z,29.70
2022-09-04T14:17:00.052Z,29.40
2022-09-04T14:19:57.654Z,29.10
2022-09-04T14:22:58.261Z,28.80
2022-09-04T14:25:53.432Z,28.70
2022-09-04T14:28:52.089Z,28.60
2022-09-04T14:31:49.012Z,28.40
2022-09-04T14:34:52.541Z,28.20
2022-09-04T14:38:00.155Z,28.20
2022-09-04T14:40:57.856Z,28.20
2022-09-04T14:43:59.479Z,28.00
2022-09-04T14:47:03.689Z,28.00
2022-09-04T14:49:55.643Z,28.10
2022-09-04T14:52:48.605Z,28.30
2022-09-04T14:55:43.153Z,28.20
2022-09-04T14:58:36.632Z,28.30
2022-09-04T15:01:26.261Z,28.40
2022-09-04T15:04:24.161Z,28.40
2022-09-04T15:07:30.709Z,28.10
2022-09-04T15:10:24.772Z,27.90
2022-09-04T15:13:41.713Z,27.80
2022-09-04T15:16:44.234Z,27.50
2022-09-04T15:19:45.435Z,27.40
2022-09-04T15:22:39.849Z,27.20
2022-09-04T15:26:01.951Z,27.10
2022-09-04T15:28:54.293Z,27.00
2022-09-04T15:31:44.376Z,26.90
2022-09-04T15:34:33.596Z,26.80
2022-09-04T15:37:26.775Z,26.80
2022-09-04T15:40:24.871Z,26.70
2022-09-04T15:43:21.123Z,26.70
2022-09-04T15:46:22.097Z,26.50
2022-09-04T15:49:26.331Z,26.40
2022-09-04T15:52:31.629Z,26.30
2022-09-04T15:55:26.061Z,26.20
2022-09-04T15:58:19.554Z,26.20
2022-09-04T16:01:17.099Z,26.10
2022-09-04T16:04:14.347Z,26.10
2022-09-04T16:07:34.107Z,26.00
2022-09-04T16:10:27.600Z,25.90
2022-09-04T16:13:39.082Z,25.80
2022-09-04T16:16:35.505Z,25.80
2022-09-04T16:19:30.822Z,25.80
2022-09-04T16:22:27.281Z,25.80
2022-09-04T16:25:27.852Z,25.60
2022-09-04T16:28:25.364Z,25.50
2022-09-04T16:31:23.691Z,25.50
2022-09-04T16:37:02.047Z,25.30
2022-09-04T16:40:01.764Z,25.20
2022-09-04T16:43:05.778Z,25.20
2022-09-04T16:46:08.299Z,25.10
2022-09-04T16:49:03.436Z,25.10
2022-09-04T16:52:03.468Z,25.10
2022-09-04T16:54:55.201Z,25.00
2022-09-04T16:57:53.424Z,24.90
2022-09-04T17:01:12.795Z,24.90
2022-09-04T17:04:37.984Z,24.80
2022-09-04T17:07:34.759Z,24.70
2022-09-04T17:10:36.575Z,24.60
2022-09-04T17:13:31.657Z,24.50
2022-09-04T17:16:33.812Z,24.40
2022-09-04T17:19:24.364Z,24.40
2022-09-04T17:28:56.326Z,24.30
2022-09-04T17:29:16.401Z,24.20
2022-09-04T17:34:07.063Z,24.00
2022-09-04T17:40:33.749Z,24.00
2022-09-04T17:40:49.128Z,23.90
2022-09-04T17:42:09.840Z,23.80
2022-09-04T17:45:10.514Z,23.70
2022-09-04T17:48:18.940Z,23.70
2022-09-04T17:51:10.677Z,23.60
2022-09-04T17:54:02.034Z,23.60
2022-09-04T17:56:59.375Z,23.40
2022-09-04T17:59:55.346Z,23.30
2022-09-04T18:02:50.814Z,23.30
2022-09-04T18:05:48.665Z,23.20
2022-09-04T18:08:55.175Z,23.10
2022-09-04T18:12:00.414Z,23.00
2022-09-04T18:15:12.876Z,23.00
2022-09-04T18:18:13.194Z,22.90
2022-09-04T18:21:12.948Z,22.90
2022-09-04T18:24:07.028Z,22.80
2022-09-04T18:27:02.934Z,22.70
2022-09-04T18:32:23.474Z,22.60
2022-09-04T18:37:10.498Z,22.60
2022-09-04T18:37:26.210Z,22.40
2022-09-04T18:39:50.804Z,22.40
2022-09-04T18:47:53.306Z,22.30
2022-09-04T18:50:33.984Z,22.30
2022-09-04T18:50:38.072Z,22.20
2022-09-04T18:52:45.415Z,22.20
2022-09-04T18:55:41.852Z,22.10
2022-09-04T18:58:45.668Z,22.00
2022-09-04T19:01:44.914Z,21.90
2022-09-04T19:04:44.547Z,21.90
2022-09-04T19:07:38.154Z,21.80
2022-09-04T19:10:29.141Z,21.70
2022-09-04T19:13:26.749Z,21.70
2022-09-04T19:16:20.956Z,21.70
2022-09-04T19:19:17.661Z,21.60
2022-09-04T19:22:12.839Z,21.50
2022-09-04T19:25:06.802Z,21.50
2022-09-04T19:28:00.564Z,21.40
2022-09-04T19:30:57.424Z,21.40
2022-09-04T19:33:54.179Z,21.30
2022-09-04T19:36:55.826Z,21.30
2022-09-04T19:46:00.354Z,21.20
2022-09-04T19:46:18.486Z,21.10
2022-09-04T19:46:47.593Z,21.10
2022-09-04T19:52:23.673Z,21.00
2022-09-04T19:53:31.031Z,21.00
2022-09-04T19:56:21.365Z,20.90
2022-09-04T19:59:20.865Z,20.90
2022-09-04T20:02:29.414Z,20.80
2022-09-04T20:05:24.592Z,20.80
2022-09-04T20:08:33.779Z,20.70
2022-09-04T20:11:46.296Z,20.70
2022-09-04T20:15:01.388Z,20.60
2022-09-04T20:18:34.335Z,20.60
2022-09-04T20:22:18.221Z,20.50
2022-09-04T20:25:37.936Z,20.40
2022-09-04T20:29:03.917Z,20.40
2022-09-04T20:32:21.958Z,20.40
2022-09-04T20:35:33.001Z,20.30
2022-09-04T20:38:55.018Z,20.30
2022-09-04T20:42:15.899Z,20.30
2022-09-04T20:47:23.051Z,20.20
2022-09-04T20:52:54.031Z,20.10
2022-09-04T20:52:58.243Z,20.10
2022-09-04T20:55:48.858Z,20.00
2022-09-04T21:03:12.922Z,20.00
2022-09-04T21:03:18.902Z,19.90
2022-09-04T21:06:32.280Z,19.90
2022-09-04T21:09:55.477Z,19.90
2022-09-04T21:13:13.692Z,19.80
2022-09-04T21:16:50.089Z,19.80
2022-09-04T21:20:24.031Z,19.70
2022-09-04T21:24:02.993Z,19.70
2022-09-04T21:27:45.908Z,19.60
2022-09-04T21:31:17.688Z,19.60
2022-09-04T21:34:45.864Z,19.60
2022-09-04T21:38:05.107Z,19.50
2022-09-04T21:41:32.574Z,19.50
2022-09-04T21:45:01.542Z,19.40
2022-09-04T21:48:31.476Z,19.40
2022-09-04T21:52:15.345Z,19.40
2022-09-04T21:57:14.912Z,19.30
2022-09-04T22:02:38.110Z,19.30
2022-09-04T22:02:54.402Z,19.20
2022-09-04T22:06:49.485Z,19.20
2022-09-04T22:13:32.763Z,19.20
2022-09-04T22:13:47.911Z,19.20
2022-09-04T22:17:19.779Z,19.20
2022-09-04T22:20:50.045Z,19.20
2022-09-04T22:24:32.235Z,19.20
2022-09-04T22:28:15.378Z,19.10
2022-09-04T22:31:52.881Z,19.10
2022-09-04T22:35:35.983Z,19.10
2022-09-04T22:39:16.039Z,19.10
2022-09-04T22:42:51.297Z,19.10
2022-09-04T22:46:32.787Z,19.00
2022-09-04T22:50:12.977Z,19.00
2022-09-04T22:53:53.316Z,19.00
2022-09-04T23:00:45.094Z,19.00
2022-09-04T23:10:35.424Z,18.90
2022-09-04T23:13:59.559Z,18.90
2022-09-04T23:15:08.435Z,18.90
2022-09-04T23:20:11.609Z,18.90
2022-09-04T23:26:38.230Z,19.00
2022-09-04T23:26:57.371Z,18.90
2022-09-04T23:29:41.241Z,18.90
2022-09-04T23:33:27.728Z,18.90
2022-09-04T23:36:50.054Z,18.90
2022-09-04T23:43:55.458Z,18.90
2022-09-04T23:50:32.071Z,18.90
2022-09-04T23:53:38.014Z,18.80
2022-09-04T23:56:55.723Z,18.80
